Time;durP1;ratioP1;P1;durP2;ratioP2;P2;SDS_P1;SDS_P2;PMS_P1;PMS_P2;Temp;Humidity;BMP_temperature;BMP_pressure;BME280_temperature;BME280_humidity;BME280_pressure;Samples;Min_cycle;Max_cycle;Signal;HPM_P1;HPM_P2
2022/04/23 00:04:01;;;;;;;6.13;3.15;;;;;;;10.13;100.00;101138.09;10113400;28;20146;-68
2022/04/23 00:08:58;;;;;;;5.90;3.05;;;;;;;10.10;100.00;101135.97;10120166;28;20129;-67
2022/04/23 00:13:55;;;;;;;8.85;4.07;;;;;;;10.03;100.00;101135.59;10113528;28;20085;-65
2022/04/23 00:18:52;;;;;;;6.20;3.35;;;;;;;10.01;100.00;101132.34;10111837;28;20046;-65
2022/04/23 00:23:48;;;;;;;5.38;3.22;;;;;;;9.98;100.00;101130.19;10113292;28;20169;-66
2022/04/23 00:28:45;;;;;;;6.38;3.28;;;;;;;9.90;100.00;101129.78;10145507;28;20059;-66
2022/04/23 00:33:42;;;;;;;6.18;3.22;;;;;;;9.83;100.00;101126.66;10112606;28;20070;-66
2022/04/23 00:38:40;;;;;;;7.60;3.47;;;;;;;9.62;100.00;101130.88;10112296;28;20139;-65
2022/04/23 00:43:36;;;;;;;8.93;3.88;;;;;;;9.64;100.00;101128.66;10112484;28;20055;-65
2022/04/23 00:48:35;;;;;;;5.85;3.65;;;;;;;9.56;100.00;101132.91;10111253;28;20460;-65
2022/04/23 00:53:33;;;;;;;7.75;3.50;;;;;;;9.46;100.00;101133.88;10111987;28;20082;-66
2022/04/23 00:58:29;;;;;;;6.45;4.25;;;;;;;9.42;100.00;101138.34;10114123;28;20073;-63
2022/04/23 01:03:26;;;;;;;9.07;4.30;;;;;;;9.15;100.00;101138.25;10140016;28;20047;-65
2022/04/23 01:08:25;;;;;;;5.72;3.85;;;;;;;9.23;100.00;101129.38;10145131;28;20129;-65
2022/04/23 01:13:25;;;;;;;8.48;4.53;;;;;;;9.23;100.00;101137.56;10147728;28;20050;-65
2022/04/23 01:18:22;;;;;;;9.57;5.03;;;;;;;9.14;100.00;101131.16;10110428;28;20059;-65
2022/04/23 01:23:18;;;;;;;7.90;4.63;;;;;;;9.11;100.00;101126.31;10110486;28;20081;-65
2022/04/23 01:28:18;;;;;;;10.38;4.68;;;;;;;9.01;100.00;101128.09;10110474;28;20055;-66
2022/04/23 01:33:14;;;;;;;10.57;4.88;;;;;;;9.01;100.00;101139.00;10111113;28;20063;-66
2022/04/23 01:38:12;;;;;;;7.97;5.10;;;;;;;8.97;100.00;101132.53;10132361;28;20109;-66
2022/04/23 01:43:09;;;;;;;7.63;5.18;;;;;;;8.79;100.00;101131.41;10149565;28;20574;-64
2022/04/23 01:48:06;;;;;;;9.00;5.18;;;;;;;8.76;100.00;101131.22;10131797;28;20051;-68
2022/04/23 01:53:03;;;;;;;9.45;5.60;;;;;;;8.57;100.00;101132.03;10148023;28;20054;-68
2022/04/23 01:57:59;;;;;;;14.88;6.00;;;;;;;8.72;100.00;101135.63;10114593;28;20051;-68
2022/04/23 02:02:57;;;;;;;10.88;6.20;;;;;;;8.67;100.00;101141.16;10165394;28;20092;-68
2022/04/23 02:07:54;;;;;;;12.95;6.95;;;;;;;8.60;100.00;101139.59;10134641;28;20595;-68
2022/04/23 02:12:50;;;;;;;13.73;6.88;;;;;;;8.56;100.00;101144.03;10155319;28;20073;-65
2022/04/23 02:17:50;;;;;;;12.13;7.20;;;;;;;8.55;100.00;101136.16;10126027;28;20051;-66
2022/04/23 02:22:47;;;;;;;15.40;8.13;;;;;;;8.46;100.00;101138.72;10117043;28;20055;-69
2022/04/23 02:27:48;;;;;;;15.05;9.23;;;;;;;8.45;100.00;101142.56;10146026;28;20296;-65
2022/04/23 02:32:45;;;;;;;13.45;8.38;;;;;;;8.26;100.00;101138.94;10122711;28;20146;-65
2022/04/23 02:37:44;;;;;;;15.02;8.95;;;;;;;8.30;100.00;101134.53;10144372;28;20046;-66
2022/04/23 02:42:41;;;;;;;16.40;9.40;;;;;;;8.26;100.00;101133.50;10155497;28;20570;-65
2022/04/23 02:47:46;;;;;;;15.20;10.30;;;;;;;8.17;100.00;101131.44;10121831;28;20078;-66
2022/04/23 02:52:44;;;;;;;18.92;10.02;;;;;;;8.07;100.00;101136.19;10115902;28;20501;-66
2022/04/23 02:57:40;;;;;;;16.45;9.40;;;;;;;8.11;100.00;101132.59;10140772;28;20610;-67
2022/04/23 03:02:37;;;;;;;17.98;11.15;;;;;;;8.00;100.00;101141.97;10155295;28;20105;-67
2022/04/23 03:07:35;;;;;;;16.35;10.77;;;;;;;8.04;100.00;101143.03;10114590;28;20074;-66
2022/04/23 03:12:31;;;;;;;17.77;10.07;;;;;;;8.10;100.00;101139.16;10114578;28;20576;-66
2022/04/23 03:17:28;;;;;;;22.15;11.32;;;;;;;8.06;100.00;101132.66;10116277;28;20109;-66
2022/04/23 03:22:24;;;;;;;14.32;10.40;;;;;;;8.02;100.00;101139.78;10114234;28;20050;-66
2022/04/23 03:27:21;;;;;;;18.70;11.68;;;;;;;7.99;100.00;101140.38;10119367;28;20761;-67
2022/04/23 03:32:18;;;;;;;21.13;12.77;;;;;;;7.93;100.00;101147.75;10152581;28;20129;-66
2022/04/23 03:37:14;;;;;;;16.85;11.40;;;;;;;7.79;100.00;101142.19;10119546;28;20125;-67
2022/04/23 03:42:11;;;;;;;21.63;13.68;;;;;;;7.74;100.00;101144.97;10114181;28;20366;-67
2022/04/23 03:47:07;;;;;;;24.00;13.02;;;;;;;7.78;100.00;101146.03;10120025;28;20141;-67
2022/04/23 03:52:04;;;;;;;21.27;13.32;;;;;;;7.82;100.00;101156.34;10152531;28;20050;-66
2022/04/23 03:57:01;;;;;;;21.80;13.90;;;;;;;7.73;100.00;101151.53;10127171;28;20455;-65
2022/04/23 04:02:02;;;;;;;20.40;12.88;;;;;;;7.68;100.00;101145.31;10146486;28;20046;-67
2022/04/23 04:07:00;;;;;;;27.60;13.83;;;;;;;7.73;100.00;101148.00;10134019;28;20130;-67
2022/04/23 04:12:02;;;;;;;24.00;14.55;;;;;;;7.70;100.00;101149.38;10112938;28;20513;-67
2022/04/23 04:16:59;;;;;;;22.17;14.37;;;;;;;7.67;100.00;101143.72;10134032;28;20515;-65
2022/04/23 04:21:58;;;;;;;20.52;13.07;;;;;;;7.64;100.00;101150.53;10149244;28;20050;-66
2022/04/23 04:26:54;;;;;;;21.13;14.20;;;;;;;7.63;100.00;101142.66;10144359;28;20073;-66
2022/04/23 04:31:51;;;;;;;24.30;13.85;;;;;;;7.62;100.00;101136.41;10158724;28;20070;-66
2022/04/23 04:36:49;;;;;;;21.48;14.60;;;;;;;7.61;100.00;101148.38;10117354;28;20191;-64
2022/04/23 04:41:46;;;;;;;25.85;15.07;;;;;;;7.57;100.00;101155.50;10111057;28;20505;-65
2022/04/23 04:46:43;;;;;;;24.95;14.88;;;;;;;7.56;100.00;101154.66;10124907;28;20047;-68
2022/04/23 04:51:39;;;;;;;23.08;15.35;;;;;;;7.54;100.00;101162.34;10111878;28;20069;-68
2022/04/23 04:56:36;;;;;;;22.95;15.85;;;;;;;7.55;100.00;101161.22;10117519;28;20142;-66
2022/04/23 05:01:32;;;;;;;21.65;15.32;;;;;;;7.57;100.00;101155.50;10126818;28;20070;-66
2022/04/23 05:06:29;;;;;;;25.00;15.65;;;;;;;7.54;100.00;101166.94;10112765;28;20404;-67
2022/04/23 05:11:25;;;;;;;26.45;16.30;;;;;;;7.32;100.00;101165.50;10110936;28;20326;-67
2022/04/23 05:16:22;;;;;;;28.08;15.27;;;;;;;7.41;100.00;101167.63;10109732;28;20505;-67
2022/04/23 05:21:18;;;;;;;20.92;14.00;;;;;;;7.46;100.00;101164.84;10109990;28;20494;-65
2022/04/23 05:26:15;;;;;;;19.30;13.88;;;;;;;7.58;100.00;101173.44;10118485;28;20555;-66
2022/04/23 05:31:11;;;;;;;24.88;14.57;;;;;;;7.65;100.00;101175.84;10135903;28;20074;-66
2022/04/23 05:36:08;;;;;;;23.10;14.32;;;;;;;7.63;100.00;101173.38;10109929;28;20051;-65
2022/04/23 05:41:05;;;;;;;20.55;14.02;;;;;;;7.75;100.00;101179.28;10130060;28;20515;-68
2022/04/23 05:46:02;;;;;;;18.00;13.07;;;;;;;7.88;100.00;101182.41;10117015;28;20716;-68
2022/04/23 05:50:58;;;;;;;17.27;12.77;;;;;;;7.88;100.00;101180.50;10122145;28;20053;-64
2022/04/23 05:55:56;;;;;;;18.58;14.40;;;;;;;7.93;100.00;101179.63;10116161;28;20085;-64
2022/04/23 06:00:53;;;;;;;17.83;12.13;;;;;;;8.06;100.00;101181.69;10118981;28;20138;-66
2022/04/23 06:05:50;;;;;;;19.30;12.25;;;;;;;8.19;100.00;101183.72;10119519;28;20076;-66
2022/04/23 06:10:47;;;;;;;16.92;12.00;;;;;;;8.31;100.00;101196.09;10113550;28;20141;-66
2022/04/23 06:15:43;;;;;;;17.50;12.20;;;;;;;8.38;100.00;101191.13;10121507;28;20137;-66
2022/04/23 06:20:40;;;;;;;14.80;11.07;;;;;;;8.46;100.00;101185.03;10120435;28;20055;-66
2022/04/23 06:25:36;;;;;;;15.88;11.35;;;;;;;8.51;100.00;101187.69;10118959;28;20539;-66
2022/04/23 06:30:32;;;;;;;13.82;9.57;;;;;;;8.58;100.00;101179.97;10125014;28;20501;-66
2022/04/23 06:35:30;;;;;;;18.67;10.18;;;;;;;8.71;100.00;101188.53;10121175;28;20145;-66
2022/04/23 06:40:26;;;;;;;14.30;9.77;;;;;;;8.84;100.00;101187.78;10130901;28;20145;-64
2022/04/23 06:45:23;;;;;;;13.18;9.10;;;;;;;8.98;100.00;101185.97;10126339;28;20113;-64
2022/04/23 06:50:19;;;;;;;12.52;9.95;;;;;;;9.12;100.00;101187.94;10138806;28;20051;-64
2022/04/23 06:55:16;;;;;;;13.10;9.32;;;;;;;9.20;100.00;101195.47;10134891;28;20085;-65
2022/04/23 07:00:13;;;;;;;12.80;9.23;;;;;;;9.34;100.00;101190.06;10124117;28;20208;-65
2022/04/23 07:05:09;;;;;;;12.50;8.80;;;;;;;9.51;100.00;101189.50;10132965;28;20103;-64
2022/04/23 07:10:06;;;;;;;11.13;8.43;;;;;;;9.68;100.00;101184.31;10156007;28;20077;-65
2022/04/23 07:15:03;;;;;;;9.55;7.30;;;;;;;9.86;100.00;101180.69;10144593;28;20051;-65
2022/04/23 07:20:00;;;;;;;13.15;7.32;;;;;;;9.99;100.00;101183.72;10118108;28;20043;-65
2022/04/23 07:24:56;;;;;;;8.52;6.45;;;;;;;10.14;100.00;101183.41;10131349;28;20066;-65
2022/04/23 07:29:53;;;;;;;8.20;6.30;;;;;;;10.30;100.00;101189.44;10155543;28;20133;-65
2022/04/23 07:40:06;;;;;;;7.68;5.40;;;;;;;10.65;100.00;101195.25;10152769;28;20050;-65
2022/04/23 07:45:03;;;;;;;7.65;4.68;;;;;;;10.77;100.00;101183.78;10132102;28;20053;-65
2022/04/23 07:50:01;;;;;;;5.72;3.65;;;;;;;10.89;100.00;101184.09;10148941;28;20039;-65
2022/04/23 07:54:57;;;;;;;7.40;4.25;;;;;;;11.05;100.00;101188.09;10130852;28;20093;-65
2022/04/23 07:59:55;;;;;;;8.07;4.40;;;;;;;11.18;100.00;101178.19;10136423;28;20109;-64
2022/04/23 08:04:52;;;;;;;6.72;4.35;;;;;;;11.35;100.00;101180.25;10130481;28;20574;-65
2022/04/23 08:09:48;;;;;;;6.25;4.60;;;;;;;11.53;100.00;101182.00;10128128;28;20042;-65
2022/04/23 08:14:45;;;;;;;6.43;4.43;;;;;;;11.71;100.00;101176.59;10128970;28;20544;-64
2022/04/23 08:19:41;;;;;;;6.00;4.22;;;;;;;11.87;98.01;101183.31;10124518;28;20055;-65
2022/04/23 08:24:39;;;;;;;7.63;3.78;;;;;;;12.04;100.00;101170.81;10128578;28;20061;-64
2022/04/23 08:34:51;;;;;;;6.50;4.18;;;;;;;12.45;100.00;101161.44;10130034;28;20125;-65
2022/04/23 08:39:47;;;;;;;5.65;3.78;;;;;;;12.65;89.88;101152.59;10154970;28;20077;-64
2022/04/23 08:44:44;;;;;;;6.47;4.35;;;;;;;12.83;96.72;101146.00;10139065;28;20085;-65
2022/04/23 08:49:42;;;;;;;5.85;3.30;;;;;;;13.02;87.48;101150.34;10153841;28;20089;-65
2022/04/23 08:54:39;;;;;;;4.43;3.10;;;;;;;13.25;81.88;101143.53;10131526;28;20086;-65
2022/04/23 08:59:37;;;;;;;6.68;3.20;;;;;;;13.32;83.47;101139.50;10152209;28;20046;-64
2022/04/23 09:04:37;;;;;;;5.63;2.88;;;;;;;13.44;90.44;101136.91;10126894;28;20081;-64
2022/04/23 09:09:33;;;;;;;5.40;3.28;;;;;;;13.68;83.58;101137.16;10143640;28;20502;-65
2022/04/23 09:14:33;;;;;;;5.43;2.88;;;;;;;13.72;86.97;101131.81;10126715;28;20077;-65
2022/04/23 09:24:47;;;;;;;4.32;2.90;;;;;;;14.18;78.03;101115.56;10122190;28;20051;-64
2022/04/23 09:30:01;;;;;;;5.78;3.00;;;;;;;14.38;68.41;101125.00;10128668;28;20054;-65
2022/04/23 09:35:05;;;;;;;4.25;3.00;;;;;;;14.70;63.81;101120.75;10129392;28;20077;-65
2022/04/23 09:40:16;;;;;;;7.15;3.60;;;;;;;14.79;62.03;101118.75;10168195;28;20054;-64
2022/04/23 09:45:17;;;;;;;4.68;2.97;;;;;;;15.04;71.48;101118.84;10138361;28;20050;-65
2022/04/23 09:50:15;;;;;;;4.38;2.95;;;;;;;15.13;56.95;101109.38;10153555;28;20097;-65
2022/04/23 09:55:13;;;;;;;4.75;3.20;;;;;;;15.69;53.41;101106.16;10131078;28;20051;-65
2022/04/23 10:00:11;;;;;;;4.18;2.85;;;;;;;16.74;60.90;101105.50;10139527;28;20266;-65
2022/04/23 10:05:11;;;;;;;4.57;3.28;;;;;;;17.46;47.41;101108.28;10137758;28;20053;-65
2022/04/23 10:10:12;;;;;;;3.08;1.80;;;;;;;18.70;51.01;101091.41;10134680;28;20685;-65
2022/04/23 10:15:09;;;;;;;4.30;2.83;;;;;;;20.00;49.65;101105.69;10138119;28;20138;-65
2022/04/23 10:20:12;;;;;;;4.93;2.67;;;;;;;20.80;45.42;101087.78;10120770;28;20480;-65
2022/04/23 10:25:33;;;;;;;4.50;2.92;;;;;;;20.91;42.07;101089.88;10121088;28;20067;-65
2022/04/23 10:30:31;;;;;;;5.28;2.60;;;;;;;20.82;42.15;101095.75;10120377;28;20448;-65
2022/04/23 10:35:30;;;;;;;5.05;2.75;;;;;;;21.08;36.10;101083.72;10140213;28;20053;-65
2022/04/23 10:40:35;;;;;;;3.83;2.45;;;;;;;21.39;34.79;101090.00;10141914;28;20125;-65
2022/04/23 10:45:35;;;;;;;4.93;2.42;;;;;;;22.00;36.67;101085.75;10139653;28;20042;-65
2022/04/23 10:50:31;;;;;;;3.67;2.47;;;;;;;22.11;40.50;101085.81;10126889;28;20046;-65
2022/04/23 10:55:29;;;;;;;5.03;3.10;;;;;;;22.70;39.67;101069.03;10128241;28;20134;-65
2022/04/23 11:00:30;;;;;;;6.30;3.00;;;;;;;23.27;34.62;101074.78;10119888;28;20047;-66
2022/04/23 11:16:13;;;;;;;4.97;3.00;;;;;;;21.83;34.41;101075.28;10141987;28;20464;-64
2022/04/23 11:21:11;;;;;;;6.25;3.38;;;;;;;21.88;35.41;101068.56;10152734;28;20051;-64
2022/04/23 11:26:15;;;;;;;4.93;2.83;;;;;;;20.41;41.61;101058.69;10143313;28;20174;-64
2022/04/23 11:31:16;;;;;;;5.28;3.05;;;;;;;19.67;43.40;101049.66;10147447;28;20081;-64
2022/04/23 11:36:13;;;;;;;5.03;3.38;;;;;;;19.33;43.17;101043.97;10143650;28;20104;-64
2022/04/23 11:41:10;;;;;;;6.90;3.80;;;;;;;20.27;41.38;101040.66;10130058;28;20130;-64
2022/04/23 11:46:09;;;;;;;5.72;2.80;;;;;;;21.04;37.43;101032.84;10138373;28;20038;-64
2022/04/23 11:51:06;;;;;;;4.68;3.10;;;;;;;21.46;42.53;101026.09;10117767;28;20050;-64
2022/04/23 11:56:02;;;;;;;4.50;3.00;;;;;;;21.89;40.67;101017.28;10119038;28;20078;-64
2022/04/23 12:00:59;;;;;;;5.45;3.20;;;;;;;22.35;39.68;101012.00;10117167;28;20128;-64
2022/04/23 12:05:59;;;;;;;5.40;2.42;;;;;;;22.24;40.08;101000.00;10140128;28;20050;-64
2022/04/23 12:10:55;;;;;;;4.68;3.25;;;;;;;22.29;37.11;100991.25;10156047;28;20082;-64
2022/04/23 12:15:52;;;;;;;4.40;3.00;;;;;;;23.05;35.80;101009.03;10156156;28;20050;-64
2022/04/23 12:20:48;;;;;;;5.60;3.10;;;;;;;22.83;32.25;101003.34;10148338;28;20089;-64
2022/04/23 12:25:45;;;;;;;4.90;3.00;;;;;;;23.77;36.50;100989.50;10137963;28;20101;-64
2022/04/23 12:41:23;;;;;;;8.20;4.90;;;;;;;22.42;40.59;100980.59;10116164;28;20572;-64
2022/04/23 12:46:19;;;;;;;8.23;5.55;;;;;;;21.25;41.49;100968.28;10127564;28;20046;-64
2022/04/23 12:51:16;;;;;;;9.57;6.15;;;;;;;20.56;46.08;100960.50;10129534;28;20089;-63
2022/04/23 12:56:16;;;;;;;10.35;5.85;;;;;;;20.56;44.90;100968.81;10116194;28;20799;-64
2022/04/23 13:01:13;;;;;;;9.77;5.13;;;;;;;20.92;47.68;100946.97;10115196;28;20555;-64
2022/04/23 13:11:27;;;;;;;5.30;3.95;;;;;;;20.23;50.35;100948.19;10151490;28;20054;-64
2022/04/23 13:16:25;;;;;;;7.28;4.70;;;;;;;20.30;51.45;100937.16;10141629;28;20051;-64
2022/04/23 13:21:25;;;;;;;7.30;5.35;;;;;;;20.46;51.38;100930.59;10132046;28;20077;-64
2022/04/23 13:26:23;;;;;;;8.45;5.60;;;;;;;20.26;47.40;100918.88;10140662;28;20050;-63
2022/04/23 13:31:20;;;;;;;8.65;5.80;;;;;;;20.22;48.42;100918.84;10152287;28;20141;-64
2022/04/23 13:36:16;;;;;;;8.38;5.75;;;;;;;19.63;50.66;100925.97;10151329;28;20539;-64
2022/04/23 13:41:16;;;;;;;8.98;5.80;;;;;;;20.45;51.06;100912.34;10122898;28;20449;-64
2022/04/23 13:46:12;;;;;;;6.95;4.95;;;;;;;20.29;45.67;100912.56;10124833;28;20101;-64
2022/04/23 13:51:09;;;;;;;7.95;5.90;;;;;;;20.31;50.38;100899.91;10122065;28;20527;-64
2022/04/23 13:56:05;;;;;;;7.65;4.95;;;;;;;20.82;50.24;100895.69;10146240;28;20535;-64
2022/04/23 14:01:02;;;;;;;12.50;6.32;;;;;;;20.91;48.21;100892.56;10130862;28;20405;-64
2022/04/23 14:11:13;;;;;;;6.97;4.85;;;;;;;21.24;51.41;100880.50;10121548;28;20042;-64
2022/04/23 14:16:10;;;;;;;9.45;6.18;;;;;;;21.35;49.12;100877.78;10130573;28;20043;-64
2022/04/23 14:21:07;;;;;;;8.05;5.30;;;;;;;21.47;49.53;100874.72;10120548;28;20047;-64
2022/04/23 14:26:04;;;;;;;7.35;5.43;;;;;;;21.40;50.39;100869.13;10126380;28;20074;-64
2022/04/23 14:31:00;;;;;;;8.10;5.78;;;;;;;21.12;50.22;100864.94;10120242;28;20051;-64
2022/04/23 14:35:57;;;;;;;9.68;5.53;;;;;;;20.94;52.41;100852.91;10143507;28;20050;-64
2022/04/23 14:40:53;;;;;;;12.90;6.10;;;;;;;20.75;52.20;100851.94;10159341;28;20489;-64
2022/04/23 14:45:50;;;;;;;9.23;5.97;;;;;;;20.31;54.69;100840.81;10154748;28;20054;-64
2022/04/23 14:56:01;;;;;;;7.60;5.15;;;;;;;20.15;61.61;100827.16;10144009;28;20046;-64
2022/04/23 15:00:58;;;;;;;7.07;5.15;;;;;;;20.41;57.31;100836.53;10157753;28;20074;-64
2022/04/23 15:05:55;;;;;;;10.38;6.20;;;;;;;20.37;54.33;100830.94;10141833;28;20101;-64
2022/04/23 15:10:51;;;;;;;7.25;5.35;;;;;;;20.43;55.44;100834.16;10145725;28;20063;-64
2022/04/23 15:15:48;;;;;;;9.00;5.88;;;;;;;20.31;62.00;100822.16;10141296;28;20074;-64
2022/04/23 15:20:45;;;;;;;7.03;5.00;;;;;;;20.31;65.61;100822.16;10139376;28;20504;-64
2022/04/23 15:25:42;;;;;;;8.25;5.10;;;;;;;20.39;64.92;100823.03;10140422;28;20046;-64
2022/04/23 15:30:38;;;;;;;7.18;4.70;;;;;;;20.37;65.50;100819.81;10132263;28;20054;-64
2022/04/23 15:35:35;;;;;;;7.43;5.10;;;;;;;20.23;62.12;100820.47;10138674;28;20046;-64
2022/04/23 15:40:32;;;;;;;6.30;4.43;;;;;;;20.44;55.37;100813.53;10122340;28;20708;-64
2022/04/23 15:45:28;;;;;;;6.38;4.65;;;;;;;20.37;65.07;100809.50;10129418;28;20077;-64
2022/04/23 15:50:25;;;;;;;7.90;4.65;;;;;;;20.58;61.64;100813.69;10118065;28;20074;-64
2022/04/23 15:55:21;;;;;;;6.60;3.95;;;;;;;20.79;63.95;100819.44;10135197;28;20175;-64
2022/04/23 16:00:18;;;;;;;11.88;4.90;;;;;;;20.91;58.45;100820.28;10155973;28;20046;-64
2022/04/23 16:05:15;;;;;;;6.90;4.93;;;;;;;20.73;61.03;100826.53;10139614;28;20109;-64
2022/04/23 16:10:11;;;;;;;9.80;5.05;;;;;;;20.47;47.83;100823.88;10156087;28;20113;-64
2022/04/23 16:15:08;;;;;;;9.38;5.18;;;;;;;21.12;56.58;100819.63;10133555;28;20089;-64
2022/04/23 16:20:24;;;;;;;6.68;4.78;;;;;;;21.46;53.52;100820.28;10137009;28;20374;-64
2022/04/23 16:25:21;;;;;;;9.27;5.15;;;;;;;21.56;54.48;100822.31;10134016;28;20128;-64
2022/04/23 16:30:20;;;;;;;7.40;4.85;;;;;;;21.57;58.16;100817.53;10124384;28;20050;-64
2022/04/23 16:35:17;;;;;;;8.50;4.32;;;;;;;21.61;43.85;100827.50;10130844;28;20100;-64
2022/04/23 16:51:03;;;;;;;7.90;3.60;;;;;;;23.01;54.27;100813.03;10148969;28;20073;-64
2022/04/23 16:56:01;;;;;;;6.00;3.45;;;;;;;23.36;52.69;100805.78;10146832;28;20077;-64
2022/04/23 17:00:58;;;;;;;8.43;3.78;;;;;;;23.12;50.35;100822.19;10154437;28;20554;-64
2022/04/23 17:05:54;;;;;;;7.80;3.00;;;;;;;22.91;47.66;100825.78;10140369;28;20088;-64
2022/04/23 17:10:52;;;;;;;6.47;3.20;;;;;;;22.58;55.02;100826.94;10149154;28;20586;-64
2022/04/23 17:15:49;;;;;;;5.00;2.88;;;;;;;22.15;57.83;100829.66;10137213;28;20050;-64
2022/04/23 17:20:45;;;;;;;7.18;3.83;;;;;;;21.35;64.41;100833.28;10141364;28;20079;-64
2022/04/23 17:25:42;;;;;;;6.63;3.35;;;;;;;20.52;69.31;100831.88;10135747;28;20092;-64
2022/04/23 17:30:38;;;;;;;6.95;3.38;;;;;;;19.87;69.86;100828.44;10132538;28;20102;-64
2022/04/23 17:35:35;;;;;;;5.35;2.67;;;;;;;19.18;86.50;100833.44;10134563;28;20835;-64
2022/04/23 17:40:31;;;;;;;5.78;3.60;;;;;;;18.64;89.17;100827.81;10120466;28;20070;-64
2022/04/23 17:45:28;;;;;;;5.53;2.58;;;;;;;18.26;100.00;100828.72;10124616;28;20481;-64
2022/04/23 17:50:28;;;;;;;6.18;2.85;;;;;;;17.84;100.00;100830.31;10113649;28;20565;-65
2022/04/23 17:55:24;;;;;;;6.80;3.00;;;;;;;17.41;95.61;100823.88;10132724;28;20121;-64
2022/04/23 18:10:50;;;;;;;6.75;2.80;;;;;;;16.70;91.78;100824.94;10151938;28;20645;-63
2022/04/23 18:15:48;;;;;;;4.85;2.60;;;;;;;16.40;100.00;100826.16;10135209;28;20074;-64
2022/04/23 18:20:45;;;;;;;4.65;2.13;;;;;;;16.31;100.00;100824.75;10134222;28;20682;-64
2022/04/23 18:25:42;;;;;;;5.70;2.38;;;;;;;15.98;97.37;100825.84;10141808;28;20090;-64
2022/04/23 18:30:40;;;;;;;11.50;3.45;;;;;;;15.85;100.00;100832.53;10131387;28;20055;-64
2022/04/23 18:35:36;;;;;;;5.88;2.83;;;;;;;15.62;100.00;100829.50;10152674;28;20576;-64
2022/04/23 18:40:33;;;;;;;5.47;2.40;;;;;;;15.51;100.00;100829.19;10120674;28;20070;-64
2022/04/23 18:45:29;;;;;;;6.13;2.58;;;;;;;15.29;90.21;100834.06;10120366;28;20101;-64
2022/04/23 18:50:28;;;;;;;7.40;2.97;;;;;;;15.00;100.00;100832.38;10120033;28;20110;-64
2022/04/23 18:55:25;;;;;;;7.90;2.85;;;;;;;14.86;91.00;100840.97;10138204;28;20130;-64
2022/04/23 19:00:21;;;;;;;6.95;3.15;;;;;;;14.65;100.00;100843.81;10159120;28;20140;-64
2022/04/23 19:05:18;;;;;;;7.28;3.83;;;;;;;14.23;89.59;100843.94;10143118;28;20074;-64
2022/04/23 19:10:15;;;;;;;6.20;3.28;;;;;;;14.49;100.00;100840.91;10150412;28;20065;-63
2022/04/23 19:15:13;;;;;;;7.20;3.63;;;;;;;14.33;100.00;100839.94;10135038;28;20397;-64
2022/04/23 19:20:10;;;;;;;5.68;2.70;;;;;;;14.33;100.00;100834.44;10132993;28;20468;-64
2022/04/23 19:30:26;;;;;;;9.02;3.90;;;;;;;13.97;100.00;100844.22;10125409;28;20134;-64
2022/04/23 19:35:24;;;;;;;8.55;3.33;;;;;;;13.60;97.90;100848.69;10131067;28;20047;-63
2022/04/23 19:40:22;;;;;;;7.50;2.90;;;;;;;13.76;100.00;100854.41;10117114;28;20485;-64
2022/04/23 19:45:21;;;;;;;8.00;3.35;;;;;;;13.71;100.00;100843.63;10121415;28;20043;-64
2022/04/23 19:50:20;;;;;;;6.35;3.15;;;;;;;13.49;100.00;100853.81;10131646;28;20066;-64
2022/04/23 19:55:19;;;;;;;7.75;3.45;;;;;;;13.36;100.00;100854.84;10120207;28;20422;-64
2022/04/23 20:00:18;;;;;;;7.65;3.80;;;;;;;13.36;100.00;100849.38;10131434;28;20076;-64
2022/04/23 20:05:18;;;;;;;6.63;3.72;;;;;;;13.23;100.00;100857.50;10133384;28;20078;-64
2022/04/23 20:10:18;;;;;;;6.32;3.30;;;;;;;12.95;95.61;100856.34;10139272;28;20046;-65
2022/04/23 20:15:15;;;;;;;8.63;4.43;;;;;;;12.92;91.47;100854.25;10148465;28;20538;-64
2022/04/23 20:20:11;;;;;;;7.13;3.90;;;;;;;12.75;93.16;100857.91;10156413;28;20572;-64
2022/04/23 20:25:28;;;;;;;7.82;4.03;;;;;;;12.81;91.84;100862.88;10145145;28;20050;-64
2022/04/23 20:30:24;;;;;;;7.60;4.07;;;;;;;12.79;85.00;100859.66;10147519;28;20039;-64
2022/04/23 20:40:40;;;;;;;10.98;4.40;;;;;;;12.72;84.90;100864.84;10128048;28;20116;-64
2022/04/23 20:45:37;;;;;;;6.65;3.55;;;;;;;12.68;83.96;100858.41;10129122;28;20461;-64
2022/04/23 20:50:35;;;;;;;7.40;4.10;;;;;;;12.57;82.32;100857.16;10115639;28;20073;-64
2022/04/23 20:55:31;;;;;;;6.20;3.42;;;;;;;12.44;85.82;100848.00;10116161;28;20492;-64
2022/04/23 21:00:28;;;;;;;6.15;3.90;;;;;;;12.28;86.89;100847.72;10115733;28;20085;-64
2022/04/23 21:05:24;;;;;;;5.78;4.00;;;;;;;12.24;88.28;100849.50;10133530;28;20066;-64
2022/04/23 21:10:21;;;;;;;8.32;4.20;;;;;;;12.07;89.76;100855.00;10153221;28;20554;-63
2022/04/23 21:15:18;;;;;;;6.20;3.92;;;;;;;12.16;90.69;100844.81;10132076;28;20133;-63
2022/04/23 21:20:14;;;;;;;5.60;3.80;;;;;;;12.07;92.60;100844.84;10145008;28;20050;-64
2022/04/23 21:25:11;;;;;;;6.28;4.15;;;;;;;11.97;93.40;100853.41;10130717;28;20128;-64
2022/04/23 21:30:08;;;;;;;6.78;4.10;;;;;;;11.94;94.82;100843.91;10138635;28;20120;-63
2022/04/23 21:35:06;;;;;;;5.88;3.40;;;;;;;11.73;92.60;100848.41;10129590;28;20081;-64
2022/04/23 21:40:09;;;;;;;7.93;3.92;;;;;;;11.78;93.16;100848.22;10123780;28;20089;-64
2022/04/23 21:45:08;;;;;;;6.78;3.80;;;;;;;11.73;92.97;100845.66;10121162;28;20168;-64
2022/04/23 21:50:04;;;;;;;6.95;4.45;;;;;;;11.49;94.06;100849.69;10113492;28;20133;-63
2022/04/23 21:55:01;;;;;;;7.25;4.60;;;;;;;11.58;95.12;100845.00;10120205;28;20786;-64
2022/04/23 21:59:58;;;;;;;6.15;3.78;;;;;;;11.45;95.13;100843.22;10120416;28;20070;-63
2022/04/23 22:04:54;;;;;;;8.15;3.97;;;;;;;11.45;97.05;100845.16;10122377;28;20078;-63
2022/04/23 22:09:52;;;;;;;6.55;3.72;;;;;;;11.20;96.89;100843.97;10120783;28;20085;-63
2022/04/23 22:14:48;;;;;;;8.00;4.40;;;;;;;11.22;97.45;100841.75;10134425;28;20154;-62
2022/04/23 22:19:45;;;;;;;6.78;4.07;;;;;;;11.16;98.02;100850.09;10157242;28;20054;-62
2022/04/23 22:24:41;;;;;;;10.45;4.53;;;;;;;11.08;98.62;100844.59;10133326;28;20130;-62
2022/04/23 22:29:39;;;;;;;5.57;3.47;;;;;;;11.05;96.10;100853.47;10156098;28;20050;-62
2022/04/23 22:34:36;;;;;;;6.97;3.40;;;;;;;10.87;97.13;100841.66;10132209;28;20081;-62
2022/04/23 22:39:33;;;;;;;6.85;3.53;;;;;;;10.81;99.12;100838.22;10145532;28;20781;-62
2022/04/23 22:44:30;;;;;;;8.25;3.33;;;;;;;10.77;99.24;100847.38;10131399;28;20516;-62
2022/04/23 22:49:27;;;;;;;10.90;4.43;;;;;;;10.78;100.00;100843.53;10141741;28;20054;-62
2022/04/23 22:54:23;;;;;;;11.27;3.88;;;;;;;10.58;100.00;100839.41;10130144;28;20420;-62
2022/04/23 22:59:20;;;;;;;6.03;3.47;;;;;;;10.55;100.00;100846.31;10122065;28;20062;-62
2022/04/23 23:04:16;;;;;;;7.82;3.67;;;;;;;10.52;100.00;100841.50;10126567;28;20045;-62
2022/04/23 23:09:13;;;;;;;5.90;3.60;;;;;;;10.44;100.00;100842.25;10118116;28;20122;-62
2022/04/23 23:14:09;;;;;;;6.20;3.65;;;;;;;10.30;100.00;100845.91;10128298;28;20100;-62
2022/04/23 23:19:06;;;;;;;6.70;4.07;;;;;;;10.28;100.00;100837.19;10157447;28;20050;-62
2022/04/23 23:24:03;;;;;;;9.90;3.72;;;;;;;10.14;100.00;100841.88;10147524;28;20054;-61
2022/04/23 23:28:59;;;;;;;7.35;3.85;;;;;;;10.12;100.00;100833.22;10157119;28;20447;-63
2022/04/23 23:33:55;;;;;;;5.93;4.15;;;;;;;9.98;100.00;100837.91;10141246;28;20568;-62
2022/04/23 23:38:52;;;;;;;8.85;4.43;;;;;;;9.77;100.00;100832.97;10157349;28;20137;-62
2022/04/23 23:43:48;;;;;;;6.75;3.85;;;;;;;9.85;100.00;100829.47;10129927;28;20074;-62
2022/04/23 23:48:45;;;;;;;8.02;3.90;;;;;;;9.85;100.00;100834.94;10157444;28;20054;-62
2022/04/23 23:53:42;;;;;;;6.65;4.53;;;;;;;9.74;100.00;100839.03;10127167;28;20042;-62
2022/04/23 23:58:38;;;;;;;9.18;4.50;;;;;;;9.75;100.00;100835.19;10157039;28;20093;-62
